Time;durP1;ratioP1;P1;durP2;ratioP2;P2;SDS_P1;SDS_P2;PMS_P1;PMS_P2;Temp;Humidity;BMP_temperature;BMP_pressure;BME280_temperature;BME280_humidity;BME280_pressure;Samples;Min_cycle;Max_cycle;Signal;HPM_P1;HPM_P2
2023/11/23 00:00:37;;;;;;;4.65;3.15;;;20.80;40.40;;;;;;5053005;28;20025;-60
2023/11/23 00:03:03;;;;;;;4.68;3.33;;;20.80;40.40;;;;;;5052606;28;20029;-60
2023/11/23 00:05:29;;;;;;;3.47;2.60;;;20.80;40.40;;;;;;5052451;28;20013;-57
2023/11/23 00:07:55;;;;;;;4.07;3.03;;;20.70;40.40;;;;;;5050903;28;20053;-58
2023/11/23 00:10:21;;;;;;;3.50;2.78;;;20.80;40.50;;;;;;5053162;28;20118;-59
2023/11/23 00:12:47;;;;;;;4.55;3.00;;;20.80;40.60;;;;;;5035531;28;20075;-59
2023/11/23 00:15:13;;;;;;;3.88;2.67;;;20.70;40.50;;;;;;5053182;28;20036;-57
2023/11/23 00:17:39;;;;;;;3.65;2.75;;;20.70;40.50;;;;;;5053328;28;20061;-58
2023/11/23 00:20:07;;;;;;;4.55;3.30;;;20.70;40.60;;;;;;5057102;28;20032;-57
2023/11/23 00:22:34;;;;;;;3.80;3.08;;;20.70;40.60;;;;;;5039430;28;20025;-60
2023/11/23 00:25:00;;;;;;;3.40;2.88;;;20.70;40.70;;;;;;5039456;28;20053;-58
2023/11/23 00:27:26;;;;;;;4.05;2.85;;;20.70;40.70;;;;;;5057058;28;20031;-57
2023/11/23 00:29:52;;;;;;;4.18;2.90;;;20.70;40.80;;;;;;5057239;28;20029;-60
2023/11/23 00:32:18;;;;;;;5.32;3.17;;;20.70;40.80;;;;;;5018857;28;20577;-57
2023/11/23 00:34:44;;;;;;;3.70;2.92;;;20.70;40.90;;;;;;5038762;28;20363;-60
2023/11/23 00:37:10;;;;;;;3.88;3.13;;;20.70;40.90;;;;;;5037677;28;20037;-58
2023/11/23 00:39:36;;;;;;;3.67;2.85;;;20.70;40.90;;;;;;5019539;28;20091;-57
2023/11/23 00:42:03;;;;;;;3.35;2.85;;;20.70;41.00;;;;;;5019466;28;20039;-57
2023/11/23 00:44:31;;;;;;;3.25;2.40;;;20.60;41.00;;;;;;5018812;28;20060;-58
2023/11/23 00:46:59;;;;;;;4.22;3.05;;;20.70;41.10;;;;;;5035843;28;20029;-57
2023/11/23 00:49:24;;;;;;;3.92;2.88;;;20.70;41.10;;;;;;5018978;28;20120;-61
2023/11/23 00:51:50;;;;;;;4.05;2.70;;;20.60;41.10;;;;;;5036119;28;20097;-56
2023/11/23 00:54:16;;;;;;;3.40;2.88;;;20.60;41.20;;;;;;5029448;28;20125;-60
2023/11/23 00:56:42;;;;;;;3.03;2.72;;;20.60;41.20;;;;;;5018924;28;20025;-56
2023/11/23 00:59:08;;;;;;;3.95;3.00;;;20.60;41.30;;;;;;5036028;28;20368;-58
2023/11/23 01:01:34;;;;;;;3.47;2.92;;;20.60;41.30;;;;;;5035271;28;20108;-57
2023/11/23 01:03:59;;;;;;;4.22;3.25;;;20.60;41.40;;;;;;4999483;28;20030;-57
2023/11/23 01:06:26;;;;;;;3.47;2.90;;;20.60;41.40;;;;;;5035596;28;20036;-58
2023/11/23 01:08:52;;;;;;;3.83;2.92;;;20.60;41.50;;;;;;5034045;28;20361;-59
2023/11/23 01:11:18;;;;;;;2.85;2.53;;;20.60;41.50;;;;;;5035418;28;20057;-55
2023/11/23 01:13:43;;;;;;;3.67;2.70;;;20.60;41.60;;;;;;5036293;28;20067;-59
2023/11/23 01:16:09;;;;;;;3.30;2.47;;;20.60;41.60;;;;;;5036669;28;20024;-57
2023/11/23 01:18:35;;;;;;;3.22;2.47;;;20.60;41.70;;;;;;5032103;28;20029;-57
2023/11/23 01:21:01;;;;;;;3.50;2.40;;;20.60;41.70;;;;;;5019168;28;20357;-59
2023/11/23 01:23:27;;;;;;;4.28;2.55;;;20.60;41.80;;;;;;5018045;28;20030;-60
2023/11/23 01:25:52;;;;;;;4.00;2.72;;;20.60;41.80;;;;;;5018195;28;20025;-58
2023/11/23 01:28:19;;;;;;;3.03;2.40;;;20.60;41.90;;;;;;5035840;28;20127;-56
2023/11/23 01:30:44;;;;;;;3.45;2.38;;;20.60;41.90;;;;;;5002239;28;20033;-59
2023/11/23 01:33:11;;;;;;;3.00;2.53;;;20.60;42.00;;;;;;4999677;28;20045;-57
2023/11/23 01:35:37;;;;;;;2.90;2.50;;;20.60;42.00;;;;;;5023711;28;20526;-57
2023/11/23 01:38:03;;;;;;;3.20;2.28;;;20.50;42.00;;;;;;5037429;28;20032;-58
2023/11/23 01:40:30;;;;;;;2.67;2.40;;;20.50;42.00;;;;;;5055553;28;20033;-58
2023/11/23 01:43:07;;;;;;;4.55;2.60;;;20.50;42.10;;;;;;5037488;28;20028;-54
2023/11/23 01:45:33;;;;;;;3.30;2.78;;;20.60;42.20;;;;;;5037604;28;20033;-60
2023/11/23 01:48:00;;;;;;;2.85;2.15;;;20.50;42.20;;;;;;5036443;28;20452;-57
2023/11/23 01:50:29;;;;;;;3.25;2.30;;;20.60;42.30;;;;;;5037975;28;20116;-55
2023/11/23 01:52:55;;;;;;;2.60;2.30;;;20.60;42.40;;;;;;5046935;28;20463;-59
2023/11/23 01:55:20;;;;;;;2.65;2.17;;;20.50;42.30;;;;;;5037693;28;20033;-55
2023/11/23 01:57:50;;;;;;;2.92;2.47;;;20.50;42.40;;;;;;5037421;28;20060;-61
2023/11/23 02:00:17;;;;;;;3.05;2.40;;;20.50;42.50;;;;;;5018905;28;20020;-57
2023/11/23 02:02:43;;;;;;;4.63;2.90;;;20.50;42.50;;;;;;5053826;28;20025;-59
2023/11/23 02:05:11;;;;;;;3.28;2.22;;;20.50;42.50;;;;;;5037603;28;20035;-60
2023/11/23 02:07:37;;;;;;;3.45;2.40;;;20.50;42.60;;;;;;5035777;28;20115;-58
2023/11/23 02:10:06;;;;;;;2.88;2.30;;;20.50;42.60;;;;;;5038304;28;20440;-58
2023/11/23 02:12:32;;;;;;;3.58;2.17;;;20.50;42.70;;;;;;5038053;28;20029;-58
2023/11/23 02:15:00;;;;;;;2.45;1.83;;;20.50;42.70;;;;;;5038076;28;20426;-58
2023/11/23 02:17:25;;;;;;;2.88;1.98;;;20.50;42.80;;;;;;5032273;28;20076;-57
2023/11/23 02:19:51;;;;;;;2.42;2.00;;;20.50;42.90;;;;;;5038041;28;20071;-58
2023/11/23 02:22:17;;;;;;;2.78;2.15;;;20.50;42.90;;;;;;5037204;28;20028;-60
2023/11/23 02:24:44;;;;;;;3.15;1.77;;;20.50;42.90;;;;;;5055966;28;20041;-58
2023/11/23 02:27:11;;;;;;;3.03;2.10;;;20.50;43.00;;;;;;5035242;28;20036;-61
2023/11/23 02:29:37;;;;;;;3.05;2.13;;;20.50;43.00;;;;;;5055432;28;20032;-60
2023/11/23 02:32:08;;;;;;;2.80;2.00;;;20.40;43.00;;;;;;5037852;28;20032;-56
2023/11/23 02:34:34;;;;;;;2.80;1.90;;;20.40;43.10;;;;;;5054847;28;20029;-57
2023/11/23 02:37:00;;;;;;;2.72;2.00;;;20.40;43.10;;;;;;5037351;28;20513;-57
2023/11/23 02:39:26;;;;;;;2.67;2.10;;;20.50;43.20;;;;;;4999783;28;20100;-57
2023/11/23 02:41:54;;;;;;;2.88;1.90;;;20.50;43.30;;;;;;5035276;28;20025;-58
2023/11/23 02:44:20;;;;;;;3.03;1.98;;;20.50;43.30;;;;;;5035263;28;20033;-57
2023/11/23 02:46:46;;;;;;;2.63;2.25;;;20.50;43.40;;;;;;5017912;28;20448;-56
2023/11/23 02:49:11;;;;;;;2.28;2.00;;;20.40;43.40;;;;;;5034919;28;20025;-59
2023/11/23 02:51:37;;;;;;;3.22;1.92;;;20.40;43.40;;;;;;5017722;28;20025;-60
2023/11/23 02:54:04;;;;;;;3.30;1.90;;;20.50;43.50;;;;;;5034487;28;20029;-59
2023/11/23 02:56:29;;;;;;;3.95;2.03;;;20.50;43.60;;;;;;5035348;28;20437;-56
2023/11/23 02:58:55;;;;;;;2.85;1.90;;;20.50;43.60;;;;;;5035192;28;20040;-58
2023/11/23 03:01:24;;;;;;;2.53;1.67;;;20.50;43.60;;;;;;5017588;28;20031;-57
2023/11/23 03:03:53;;;;;;;2.53;1.50;;;20.50;43.70;;;;;;5016556;28;20458;-61
2023/11/23 03:06:18;;;;;;;3.65;1.73;;;20.50;43.70;;;;;;5017108;28;20025;-58
2023/11/23 03:08:45;;;;;;;3.30;1.80;;;20.40;43.70;;;;;;5015406;28;20116;-57
2023/11/23 03:11:21;;;;;;;2.42;1.60;;;20.40;43.70;;;;;;5035340;28;20030;-57
2023/11/23 03:13:51;;;;;;;2.65;1.60;;;20.40;43.80;;;;;;5022571;28;20112;-54
2023/11/23 03:16:17;;;;;;;2.30;1.60;;;20.40;44.40;;;;;;5000687;28;20411;-57
2023/11/23 03:18:43;;;;;;;1.67;1.35;;;20.40;43.90;;;;;;5032028;28;20033;-58
2023/11/23 03:21:09;;;;;;;2.55;1.60;;;20.40;43.90;;;;;;5017378;28;20112;-59
2023/11/23 03:23:36;;;;;;;2.58;1.67;;;20.40;44.00;;;;;;5016999;28;20117;-57
2023/11/23 03:26:03;;;;;;;3.38;1.60;;;20.40;44.00;;;;;;5017049;28;20472;-55
2023/11/23 03:28:29;;;;;;;2.35;1.45;;;20.40;44.10;;;;;;5034610;28;20041;-57
2023/11/23 03:30:56;;;;;;;2.67;1.50;;;20.40;44.10;;;;;;5016809;28;20029;-58
2023/11/23 03:33:22;;;;;;;2.42;1.55;;;20.40;44.10;;;;;;5033859;28;20060;-58
2023/11/23 03:35:50;;;;;;;2.63;1.73;;;20.40;44.20;;;;;;5027819;28;20349;-59
2023/11/23 03:38:16;;;;;;;3.55;1.85;;;20.40;44.20;;;;;;5053587;28;20052;-63
2023/11/23 03:40:42;;;;;;;2.20;1.50;;;20.40;44.30;;;;;;5043955;28;20114;-61
2023/11/23 03:43:09;;;;;;;2.42;1.50;;;20.40;44.30;;;;;;5054359;28;20487;-57
2023/11/23 03:45:35;;;;;;;2.85;1.60;;;20.40;44.30;;;;;;5051750;28;20024;-59
2023/11/23 03:48:03;;;;;;;1.90;1.48;;;20.40;44.30;;;;;;5054449;28;20421;-55
2023/11/23 03:50:29;;;;;;;2.38;1.58;;;20.40;44.40;;;;;;5052284;28;20337;-58
2023/11/23 03:52:55;;;;;;;2.70;1.70;;;20.40;44.40;;;;;;5053383;28;20044;-57
2023/11/23 03:55:21;;;;;;;2.03;1.42;;;20.30;44.40;;;;;;5051323;28;20094;-57
2023/11/23 03:57:47;;;;;;;2.72;1.38;;;20.30;44.50;;;;;;5053911;28;20451;-57
2023/11/23 04:00:13;;;;;;;2.00;1.48;;;20.30;44.50;;;;;;5027163;28;20090;-57
2023/11/23 04:02:39;;;;;;;1.90;1.38;;;20.30;44.50;;;;;;5053808;28;20025;-58
2023/11/23 04:05:06;;;;;;;2.15;1.60;;;20.30;44.50;;;;;;5051464;28;20025;-57
2023/11/23 04:07:34;;;;;;;1.83;1.25;;;20.30;44.60;;;;;;5048010;28;20017;-57
2023/11/23 04:10:02;;;;;;;2.55;1.40;;;20.30;44.60;;;;;;5053452;28;20017;-59
2023/11/23 04:12:28;;;;;;;1.98;1.42;;;20.30;44.70;;;;;;5053966;28;20084;-59
2023/11/23 04:14:54;;;;;;;2.33;1.35;;;20.20;44.70;;;;;;5041954;28;20029;-60
2023/11/23 04:17:20;;;;;;;2.47;1.40;;;20.20;44.70;;;;;;5051405;28;20222;-59
2023/11/23 04:19:46;;;;;;;2.47;1.30;;;20.20;44.80;;;;;;5053702;28;20033;-57
2023/11/23 04:22:12;;;;;;;2.25;1.60;;;20.20;44.80;;;;;;5053726;28;20056;-58
2023/11/23 04:24:40;;;;;;;2.13;1.33;;;20.20;44.80;;;;;;5053707;28;20384;-58
2023/11/23 04:27:06;;;;;;;2.00;1.40;;;20.20;44.90;;;;;;5043080;28;20044;-57
2023/11/23 04:29:33;;;;;;;3.72;1.48;;;20.20;44.90;;;;;;5053743;28;20040;-55
2023/11/23 04:31:59;;;;;;;1.73;1.27;;;20.20;45.60;;;;;;5053222;28;20120;-55
2023/11/23 04:34:24;;;;;;;2.10;1.27;;;20.10;45.00;;;;;;5044631;28;20104;-57
2023/11/23 04:36:50;;;;;;;1.77;1.33;;;20.10;45.00;;;;;;5044523;28;20480;-57
2023/11/23 04:39:16;;;;;;;1.92;1.20;;;20.10;45.10;;;;;;5033450;28;20041;-58
2023/11/23 04:41:42;;;;;;;2.00;1.13;;;20.10;45.10;;;;;;5033766;28;20041;-59
2023/11/23 04:44:08;;;;;;;2.95;1.20;;;20.10;45.10;;;;;;5033360;28;20036;-58
2023/11/23 04:46:33;;;;;;;2.65;1.17;;;20.10;45.80;;;;;;5033244;28;20352;-56
2023/11/23 04:49:00;;;;;;;2.22;1.17;;;20.10;45.20;;;;;;5033774;28;20025;-57
2023/11/23 04:51:25;;;;;;;2.90;1.25;;;20.10;45.30;;;;;;5033485;28;20453;-59
2023/11/23 04:53:51;;;;;;;2.03;1.33;;;20.10;45.40;;;;;;5033342;28;20100;-57
2023/11/23 04:56:18;;;;;;;1.83;1.30;;;20.10;45.40;;;;;;5033759;28;20024;-59
2023/11/23 04:58:44;;;;;;;2.35;1.33;;;20.10;45.40;;;;;;5033622;28;20076;-58
2023/11/23 05:01:10;;;;;;;1.55;1.00;;;20.10;45.50;;;;;;5033285;28;20046;-55
2023/11/23 05:03:36;;;;;;;1.65;1.00;;;20.10;45.50;;;;;;5035230;28;20041;-61
2023/11/23 05:06:02;;;;;;;2.00;1.20;;;20.00;45.50;;;;;;5019847;28;20041;-57
2023/11/23 05:08:28;;;;;;;1.48;0.90;;;20.10;45.60;;;;;;5035143;28;20036;-57
2023/11/23 05:10:54;;;;;;;2.05;1.10;;;20.00;45.60;;;;;;5037335;28;20022;-57
2023/11/23 05:13:20;;;;;;;2.38;1.30;;;20.00;45.60;;;;;;5036816;28;20025;-59
2023/11/23 05:15:46;;;;;;;2.13;1.10;;;20.00;45.70;;;;;;5036625;28;20111;-57
2023/11/23 05:18:15;;;;;;;2.22;1.20;;;20.00;45.70;;;;;;5017232;28;20099;-61
2023/11/23 05:20:42;;;;;;;1.58;1.10;;;20.00;45.70;;;;;;5036066;28;20114;-59
2023/11/23 05:23:08;;;;;;;1.60;0.90;;;20.00;45.70;;;;;;5036838;28;20025;-60
2023/11/23 05:25:34;;;;;;;0.85;0.80;;;20.00;45.70;;;;;;5036714;28;20163;-59
2023/11/23 05:28:00;;;;;;;1.92;1.08;;;20.00;45.70;;;;;;5036554;28;20159;-55
2023/11/23 05:30:27;;;;;;;1.20;0.85;;;20.00;45.70;;;;;;5017913;28;20093;-59
2023/11/23 05:32:53;;;;;;;1.38;0.90;;;20.00;45.80;;;;;;5036754;28;20109;-58
2023/11/23 05:35:19;;;;;;;1.77;1.10;;;20.00;45.80;;;;;;5037124;28;20036;-59
2023/11/23 05:37:45;;;;;;;1.20;0.80;;;20.00;45.90;;;;;;5036509;28;20049;-59
2023/11/23 05:40:12;;;;;;;2.55;1.30;;;19.90;45.90;;;;;;5019060;28;20105;-58
2023/11/23 05:42:39;;;;;;;2.03;1.02;;;19.90;45.90;;;;;;5036464;28;20018;-59
2023/11/23 05:45:07;;;;;;;1.98;1.15;;;19.90;46.00;;;;;;5018203;28;20036;-59
2023/11/23 05:47:33;;;;;;;2.42;1.20;;;19.90;46.00;;;;;;5019001;28;20017;-56
2023/11/23 05:50:01;;;;;;;2.35;1.02;;;19.90;46.00;;;;;;5036478;28;20349;-56
2023/11/23 05:52:30;;;;;;;1.55;1.00;;;19.90;46.10;;;;;;5033611;28;20029;-60
2023/11/23 05:54:56;;;;;;;2.50;0.90;;;19.90;46.10;;;;;;5036081;28;20018;-59
2023/11/23 05:57:26;;;;;;;1.77;0.90;;;19.90;46.10;;;;;;5036522;28;20336;-58
2023/11/23 05:59:52;;;;;;;2.35;1.08;;;19.90;46.10;;;;;;5016040;28;20021;-59
2023/11/23 06:02:18;;;;;;;1.50;0.95;;;19.90;46.10;;;;;;5035612;28;20436;-55
2023/11/23 06:04:47;;;;;;;1.20;0.95;;;19.90;46.10;;;;;;5035952;28;20025;-57
2023/11/23 06:07:15;;;;;;;1.50;1.17;;;19.90;46.10;;;;;;5033771;28;20036;-56
2023/11/23 06:09:42;;;;;;;1.13;0.70;;;19.90;46.20;;;;;;5018449;28;20017;-59
2023/11/23 06:12:09;;;;;;;2.17;0.82;;;19.90;46.20;;;;;;5035754;28;20036;-56
2023/11/23 06:14:38;;;;;;;1.85;0.90;;;19.90;46.20;;;;;;5017463;28;20013;-58
2023/11/23 06:17:06;;;;;;;2.25;1.13;;;19.90;46.30;;;;;;5033048;28;20055;-59
2023/11/23 06:19:32;;;;;;;1.80;1.08;;;19.90;46.30;;;;;;5035358;28;20033;-56
2023/11/23 06:21:58;;;;;;;2.85;1.33;;;19.80;46.20;;;;;;5018520;28;20079;-60
2023/11/23 06:24:24;;;;;;;1.92;1.25;;;19.80;46.20;;;;;;5018378;28;20361;-56
2023/11/23 06:26:52;;;;;;;1.35;0.80;;;19.80;46.30;;;;;;5035988;28;20029;-57
2023/11/23 06:29:18;;;;;;;1.63;0.90;;;19.80;46.30;;;;;;5018247;28;20067;-57
2023/11/23 06:31:44;;;;;;;1.65;1.02;;;19.80;46.30;;;;;;5033948;28;20473;-60
2023/11/23 06:34:10;;;;;;;2.13;1.00;;;19.80;46.40;;;;;;5034525;28;20096;-60
2023/11/23 06:36:38;;;;;;;1.70;1.08;;;19.80;46.40;;;;;;5034802;28;20059;-57
2023/11/23 06:39:04;;;;;;;1.83;0.98;;;19.80;46.50;;;;;;5017759;28;20037;-60
2023/11/23 06:41:30;;;;;;;1.42;0.93;;;19.80;46.50;;;;;;5035436;28;20036;-59
2023/11/23 06:43:56;;;;;;;2.13;1.02;;;19.80;46.60;;;;;;5035035;28;20021;-55
2023/11/23 06:46:22;;;;;;;3.13;0.95;;;19.80;46.60;;;;;;5033848;28;20422;-60
2023/11/23 06:48:48;;;;;;;1.38;0.98;;;19.80;46.60;;;;;;5017484;28;20025;-60
2023/11/23 06:51:14;;;;;;;1.90;1.13;;;19.80;46.60;;;;;;5035162;28;20053;-59
2023/11/23 06:53:43;;;;;;;2.22;1.23;;;19.80;46.60;;;;;;5034992;28;20126;-59
2023/11/23 06:56:13;;;;;;;2.35;1.17;;;19.80;46.70;;;;;;5017583;28;20349;-60
2023/11/23 06:58:46;;;;;;;1.67;0.98;;;19.80;46.70;;;;;;5035079;28;20033;-61
2023/11/23 07:01:12;;;;;;;2.13;0.93;;;19.80;46.80;;;;;;5032796;28;20037;-60
2023/11/23 07:03:38;;;;;;;1.65;1.08;;;19.80;46.80;;;;;;5003782;28;20116;-60
2023/11/23 07:06:05;;;;;;;1.35;1.05;;;19.80;46.80;;;;;;5017346;28;20053;-60
2023/11/23 07:08:35;;;;;;;2.03;1.00;;;19.80;46.90;;;;;;5033062;28;20022;-58
2023/11/23 07:11:05;;;;;;;2.75;1.17;;;19.80;46.90;;;;;;5017041;28;20030;-59
2023/11/23 07:13:34;;;;;;;2.10;1.20;;;19.80;46.90;;;;;;5034423;28;20401;-58
2023/11/23 07:16:02;;;;;;;2.38;1.25;;;19.80;46.90;;;;;;5017040;28;20389;-59
2023/11/23 07:18:29;;;;;;;2.60;1.13;;;19.80;46.90;;;;;;5031240;28;20025;-58
2023/11/23 07:20:57;;;;;;;2.22;1.00;;;19.80;47.00;;;;;;5034685;28;20036;-59
2023/11/23 07:23:24;;;;;;;1.23;0.80;;;19.80;47.00;;;;;;5034755;28;20018;-59
2023/11/23 07:25:52;;;;;;;1.83;0.95;;;19.80;47.00;;;;;;5016428;28;20026;-60
2023/11/23 07:28:21;;;;;;;1.65;1.13;;;19.80;47.00;;;;;;5016679;28;20116;-59
2023/11/23 07:30:48;;;;;;;1.85;1.10;;;19.70;47.00;;;;;;5032130;28;20029;-58
2023/11/23 07:33:17;;;;;;;1.45;0.80;;;19.70;47.00;;;;;;5033497;28;20029;-59
2023/11/23 07:35:46;;;;;;;1.80;1.00;;;19.70;47.00;;;;;;5034470;28;20492;-59
2023/11/23 07:38:13;;;;;;;2.40;1.20;;;19.70;47.10;;;;;;5031824;28;20135;-59
2023/11/23 07:40:39;;;;;;;3.05;1.13;;;19.70;47.10;;;;;;5033879;28;20070;-61
2023/11/23 07:43:05;;;;;;;1.67;0.93;;;19.70;47.10;;;;;;5016715;28;20025;-59
2023/11/23 07:45:31;;;;;;;1.10;0.95;;;19.70;47.20;;;;;;5034286;28;20332;-59
2023/11/23 07:47:58;;;;;;;1.70;0.70;;;19.70;47.20;;;;;;5033619;28;20029;-57
2023/11/23 07:50:23;;;;;;;1.42;0.80;;;19.70;47.20;;;;;;5035059;28;20083;-58
2023/11/23 07:52:49;;;;;;;1.70;0.90;;;19.70;47.30;;;;;;5034623;28;20060;-61
2023/11/23 07:55:15;;;;;;;2.17;0.98;;;19.70;47.30;;;;;;5017652;28;20029;-59
2023/11/23 07:57:51;;;;;;;1.65;1.02;;;19.70;47.30;;;;;;5001801;28;20123;-59
2023/11/23 08:00:20;;;;;;;2.05;1.08;;;19.70;47.30;;;;;;5017379;28;20095;-56
2023/11/23 08:02:46;;;;;;;2.15;1.10;;;19.70;47.30;;;;;;5035069;28;20480;-57
2023/11/23 08:05:12;;;;;;;2.08;0.98;;;19.70;47.30;;;;;;5015912;28;20075;-60
2023/11/23 08:07:38;;;;;;;2.05;0.90;;;19.70;47.30;;;;;;5016063;28;20030;-61
2023/11/23 08:10:08;;;;;;;1.50;0.90;;;19.70;47.40;;;;;;5001062;28;20033;-57
2023/11/23 08:12:34;;;;;;;1.38;1.10;;;19.70;47.40;;;;;;5017285;28;20038;-60
2023/11/23 08:15:00;;;;;;;2.00;1.10;;;19.70;47.40;;;;;;5034629;28;20109;-59
2023/11/23 08:17:26;;;;;;;1.73;1.00;;;19.70;47.50;;;;;;5014947;28;20163;-60
2023/11/23 08:19:52;;;;;;;2.92;1.25;;;19.70;48.10;;;;;;5016776;28;20030;-57
2023/11/23 08:22:21;;;;;;;1.83;1.17;;;19.70;47.50;;;;;;5034971;28;20351;-59
2023/11/23 08:24:47;;;;;;;1.35;0.93;;;19.70;47.50;;;;;;5017698;28;20041;-58
2023/11/23 08:27:13;;;;;;;2.00;1.15;;;19.70;47.50;;;;;;5017494;28;20087;-60
2023/11/23 08:29:39;;;;;;;2.45;1.02;;;19.70;47.50;;;;;;5034422;28;20037;-58
2023/11/23 08:32:08;;;;;;;1.20;0.90;;;19.70;47.50;;;;;;5034391;28;20018;-60
2023/11/23 08:34:34;;;;;;;1.85;1.00;;;19.70;47.50;;;;;;5034061;28;20021;-59
2023/11/23 08:37:00;;;;;;;2.83;1.08;;;19.70;47.60;;;;;;5038513;28;20407;-60
2023/11/23 08:39:26;;;;;;;1.65;0.90;;;19.70;47.60;;;;;;5057570;28;20029;-59
2023/11/23 08:41:51;;;;;;;1.55;0.88;;;19.70;47.60;;;;;;5040711;28;20504;-61
2023/11/23 08:44:18;;;;;;;1.75;0.90;;;19.70;47.60;;;;;;5058799;28;20353;-58
2023/11/23 08:46:44;;;;;;;0.90;0.73;;;19.70;47.60;;;;;;5058303;28;20112;-58
2023/11/23 08:49:10;;;;;;;2.47;1.17;;;19.70;47.60;;;;;;5040668;28;20432;-59
2023/11/23 08:51:37;;;;;;;2.33;1.40;;;19.70;47.70;;;;;;5048333;28;20021;-59
2023/11/23 08:54:05;;;;;;;2.35;0.85;;;19.70;47.70;;;;;;5039997;28;20033;-59
2023/11/23 08:56:31;;;;;;;1.48;0.90;;;19.70;47.70;;;;;;5057331;28;20029;-58
2023/11/23 08:58:57;;;;;;;2.63;1.20;;;19.80;47.80;;;;;;5057487;28;20068;-56
2023/11/23 09:01:26;;;;;;;1.50;0.93;;;19.80;47.90;;;;;;5047357;28;20471;-58
2023/11/23 09:03:53;;;;;;;2.25;1.20;;;19.80;47.90;;;;;;5058592;28;20036;-58
2023/11/23 09:06:22;;;;;;;2.00;0.82;;;19.70;47.90;;;;;;5057171;28;20040;-58
2023/11/23 09:08:49;;;;;;;2.03;1.00;;;19.80;47.90;;;;;;5056673;28;20025;-59
2023/11/23 09:11:15;;;;;;;1.55;0.77;;;19.80;47.90;;;;;;5058053;28;20064;-61
2023/11/23 09:13:43;;;;;;;1.88;0.93;;;19.90;47.90;;;;;;5057820;28;20028;-60
2023/11/23 09:16:11;;;;;;;0.90;0.65;;;19.90;47.90;;;;;;5057964;28;20036;-59
2023/11/23 09:18:37;;;;;;;2.47;0.88;;;20.00;47.80;;;;;;5055934;28;20037;-58
2023/11/23 09:21:03;;;;;;;1.13;0.73;;;20.00;47.80;;;;;;5057742;28;20036;-59
2023/11/23 09:23:29;;;;;;;1.35;0.73;;;20.10;47.70;;;;;;5056941;28;20333;-57
2023/11/23 09:25:55;;;;;;;2.30;0.80;;;20.20;47.70;;;;;;5057912;28;20032;-59
2023/11/23 09:28:22;;;;;;;1.23;0.68;;;20.20;47.60;;;;;;5057866;28;20413;-58
2023/11/23 09:30:48;;;;;;;2.40;0.90;;;20.30;47.50;;;;;;5053643;28;20021;-58
2023/11/23 09:33:14;;;;;;;1.95;0.88;;;20.40;47.50;;;;;;5057617;28;20044;-61
2023/11/23 09:35:42;;;;;;;1.80;0.68;;;20.40;47.40;;;;;;5057544;28;20029;-59
2023/11/23 09:38:08;;;;;;;1.85;0.85;;;20.50;47.40;;;;;;5033891;28;20060;-60
2023/11/23 09:40:35;;;;;;;2.33;0.80;;;20.60;47.30;;;;;;5046098;28;20368;-59
2023/11/23 09:43:01;;;;;;;3.05;0.80;;;20.60;47.20;;;;;;5056829;28;20033;-61
2023/11/23 09:45:29;;;;;;;2.15;0.88;;;20.70;47.20;;;;;;5039801;28;20036;-61
2023/11/23 09:47:56;;;;;;;1.73;0.80;;;20.80;47.10;;;;;;5037981;28;20033;-61
2023/11/23 09:50:23;;;;;;;1.65;0.90;;;20.80;47.00;;;;;;5037918;28;20028;-60
2023/11/23 09:52:49;;;;;;;1.83;0.75;;;20.90;47.00;;;;;;5057639;28;20394;-60
2023/11/23 09:55:18;;;;;;;2.28;0.90;;;20.90;46.90;;;;;;5056493;28;20025;-60
2023/11/23 09:57:44;;;;;;;2.28;1.00;;;21.00;46.80;;;;;;5042305;28;20036;-60
2023/11/23 10:00:14;;;;;;;1.30;0.70;;;21.10;46.80;;;;;;5036866;28;20364;-60
2023/11/23 10:02:56;;;;;;;1.85;0.70;;;21.10;46.70;;;;;;5059123;28;20064;-60
2023/11/23 10:05:23;;;;;;;1.42;0.70;;;21.20;46.70;;;;;;5053324;28;20013;-60
2023/11/23 10:07:52;;;;;;;1.73;0.60;;;21.20;46.60;;;;;;5033389;28;20044;-61
2023/11/23 10:10:20;;;;;;;2.28;0.70;;;21.30;46.50;;;;;;5038063;28;20025;-61
2023/11/23 10:12:47;;;;;;;1.00;0.55;;;21.30;46.40;;;;;;5037524;28;20041;-60
2023/11/23 10:15:12;;;;;;;1.65;0.80;;;21.40;46.40;;;;;;5037718;28;20345;-60
2023/11/23 10:17:42;;;;;;;1.25;0.75;;;21.40;46.50;;;;;;5052325;28;20036;-60
2023/11/23 10:20:26;;;;;;;1.52;0.80;;;21.40;46.40;;;;;;5055027;28;20036;-62
2023/11/23 10:22:53;;;;;;;1.15;0.63;;;21.50;46.40;;;;;;5037809;28;20013;-63
2023/11/23 10:25:35;;;;;;;1.55;0.63;;;21.50;46.40;;;;;;5038518;28;20363;-61
2023/11/23 10:28:04;;;;;;;1.15;0.73;;;21.50;46.30;;;;;;5056703;28;20186;-61
2023/11/23 10:30:36;;;;;;;0.98;0.50;;;21.50;46.40;;;;;;5056177;28;20033;-62
2023/11/23 10:33:04;;;;;;;1.70;0.52;;;21.50;46.30;;;;;;5038622;28;20036;-61
2023/11/23 10:35:50;;;;;;;3.13;1.38;;;21.50;46.30;;;;;;5037427;28;20051;-62
2023/11/23 10:38:16;;;;;;;1.92;0.47;;;21.60;46.40;;;;;;5038635;28;20123;-61
2023/11/23 10:40:45;;;;;;;2.92;0.80;;;21.50;46.30;;;;;;5038232;28;20142;-61
2023/11/23 10:43:21;;;;;;;2.30;0.65;;;21.60;46.40;;;;;;5055909;28;20031;-60
2023/11/23 10:45:57;;;;;;;1.00;0.57;;;21.50;46.40;;;;;;5039767;28;20104;-61
2023/11/23 10:48:27;;;;;;;1.33;0.70;;;21.60;46.40;;;;;;5037823;28;20329;-60
2023/11/23 10:50:55;;;;;;;1.48;0.65;;;21.60;46.40;;;;;;5038741;28;20345;-60
2023/11/23 10:53:26;;;;;;;2.03;0.77;;;21.60;46.40;;;;;;5055719;28;20371;-62
2023/11/23 10:55:52;;;;;;;1.83;0.90;;;21.50;46.30;;;;;;5056275;28;20333;-62
2023/11/23 10:58:22;;;;;;;1.13;0.50;;;21.60;46.40;;;;;;5037628;28;20036;-60
2023/11/23 11:00:50;;;;;;;1.25;0.70;;;21.60;46.40;;;;;;5037729;28;20032;-61
2023/11/23 11:03:17;;;;;;;1.63;0.80;;;21.50;46.40;;;;;;5055842;28;20326;-61
2023/11/23 11:05:49;;;;;;;1.85;0.73;;;21.50;46.40;;;;;;5037690;28;20039;-61
2023/11/23 11:08:20;;;;;;;1.10;0.70;;;21.50;46.40;;;;;;5030217;28;20124;-62
2023/11/23 11:10:53;;;;;;;0.80;0.52;;;21.50;46.50;;;;;;5055573;28;20460;-61
2023/11/23 11:13:24;;;;;;;1.30;0.67;;;21.50;46.50;;;;;;5055911;28;20462;-60
2023/11/23 11:16:03;;;;;;;2.13;0.80;;;21.50;46.50;;;;;;5055246;28;20135;-61
2023/11/23 11:18:29;;;;;;;1.33;0.90;;;21.40;46.50;;;;;;5051197;28;20060;-62
2023/11/23 11:21:12;;;;;;;1.10;0.55;;;21.40;46.50;;;;;;5038140;28;20040;-60
2023/11/23 11:24:01;;;;;;;1.70;0.60;;;21.40;46.50;;;;;;5037356;28;20121;-62
2023/11/23 11:26:30;;;;;;;1.27;0.60;;;21.40;46.50;;;;;;5037660;28;20517;-63
2023/11/23 11:28:58;;;;;;;3.25;0.80;;;21.40;46.70;;;;;;5037693;28;20124;-60
2023/11/23 11:31:39;;;;;;;1.73;0.88;;;21.40;46.70;;;;;;5055201;28;20061;-60
2023/11/23 11:34:14;;;;;;;2.90;0.90;;;21.40;46.80;;;;;;5035814;28;20043;-61
2023/11/23 11:37:18;;;;;;;1.70;0.50;;;21.40;46.80;;;;;;5054680;28;20355;-61
2023/11/23 11:39:46;;;;;;;1.43;0.67;;;21.30;46.80;;;;;;5050013;28;20048;-63
2023/11/23 11:42:15;;;;;;;1.38;0.50;;;21.30;46.80;;;;;;5055259;28;20044;-62
2023/11/23 11:44:45;;;;;;;1.20;0.60;;;21.30;46.90;;;;;;5037408;28;20033;-63
2023/11/23 11:47:12;;;;;;;1.27;0.50;;;21.30;47.00;;;;;;5055155;28;20029;-62
2023/11/23 11:49:44;;;;;;;1.25;0.77;;;21.30;47.00;;;;;;5020093;28;20112;-63
2023/11/23 11:52:12;;;;;;;1.63;0.70;;;21.30;47.10;;;;;;5037378;28;20037;-62
2023/11/23 11:54:47;;;;;;;1.35;0.70;;;21.30;47.40;;;;;;5031656;28;20487;-62
2023/11/23 11:57:13;;;;;;;2.20;0.98;;;21.30;47.20;;;;;;5050538;28;20029;-62
2023/11/23 11:59:43;;;;;;;1.73;0.55;;;21.30;47.20;;;;;;5035660;28;20040;-62
2023/11/23 12:02:10;;;;;;;2.35;0.75;;;21.30;47.20;;;;;;5053676;28;20037;-62
2023/11/23 12:04:36;;;;;;;2.13;0.70;;;21.30;47.30;;;;;;5018519;28;20025;-61
2023/11/23 12:07:05;;;;;;;2.38;0.80;;;21.30;47.30;;;;;;5030444;28;20033;-62
2023/11/23 12:09:42;;;;;;;0.65;0.50;;;21.20;47.20;;;;;;5047141;28;20444;-63
2023/11/23 12:12:19;;;;;;;1.15;0.50;;;21.30;47.30;;;;;;5029846;28;20099;-60
2023/11/23 12:14:45;;;;;;;2.38;0.95;;;21.20;47.30;;;;;;5032933;28;20044;-61
2023/11/23 12:17:12;;;;;;;2.97;0.70;;;21.20;47.40;;;;;;5051635;28;20436;-61
2023/11/23 12:19:51;;;;;;;2.38;0.70;;;21.20;47.30;;;;;;5052445;28;20033;-61
2023/11/23 12:22:24;;;;;;;1.65;0.60;;;21.20;47.40;;;;;;5053822;28;20108;-61
2023/11/23 12:24:51;;;;;;;1.10;0.47;;;21.20;47.40;;;;;;5054518;28;20027;-61
2023/11/23 12:27:20;;;;;;;1.00;0.60;;;21.20;47.40;;;;;;5054319;28;20052;-63
2023/11/23 12:29:47;;;;;;;4.35;1.15;;;21.20;47.40;;;;;;5054113;28;20115;-62
2023/11/23 12:32:13;;;;;;;1.20;0.60;;;21.20;47.40;;;;;;5052107;28;20425;-63
2023/11/23 12:34:41;;;;;;;1.65;0.77;;;21.20;47.40;;;;;;5036776;28;20116;-61
2023/11/23 12:37:07;;;;;;;1.58;0.50;;;21.20;47.40;;;;;;5030900;28;20107;-61
2023/11/23 12:39:33;;;;;;;1.20;0.60;;;21.20;47.50;;;;;;5015986;28;20038;-61
2023/11/23 12:42:02;;;;;;;0.77;0.50;;;21.20;47.50;;;;;;5034277;28;20021;-61
2023/11/23 12:44:29;;;;;;;2.42;0.68;;;21.20;47.50;;;;;;5034598;28;20075;-60
2023/11/23 12:46:55;;;;;;;1.55;0.70;;;21.20;47.50;;;;;;5031659;28;20025;-64
2023/11/23 12:49:21;;;;;;;1.17;0.57;;;21.20;47.50;;;;;;5033042;28;20484;-61